Time;durP1;ratioP1;P1;durP2;ratioP2;P2;SDS_P1;SDS_P2;PMS_P1;PMS_P2;Temp;Humidity;BMP_temperature;BMP_pressure;BME280_temperature;BME280_humidity;BME280_pressure;Samples;Min_cycle;Max_cycle;Signal;HPM_P1;HPM_P2
2023/09/09 00:01:31;;;;;;;;;;;;;;;22.22;64.54;97382.91;599352;237;38543;-67
2023/09/09 00:03:59;;;;;;;;;;;;;;;22.21;64.53;97380.49;599334;237;62677;-66
2023/09/09 00:06:27;;;;;;;;;;;;;;;22.21;64.52;97375.97;599282;237;66693;-66
2023/09/09 00:08:54;;;;;;;;;;;;;;;22.21;64.78;97375.97;599243;237;64423;-66
2023/09/09 00:11:22;;;;;;;;;;;;;;;22.21;64.86;97370.61;599226;237;62670;-67
2023/09/09 00:13:53;;;;;;;;;;;;;;;22.21;64.74;97375.14;599265;237;67242;-66
2023/09/09 00:16:23;;;;;;;;;;;;;;;22.22;64.41;97372.20;599244;237;66910;-66
2023/09/09 00:18:50;;;;;;;;;;;;;;;22.22;64.51;97372.20;599263;237;62949;-66
2023/09/09 00:21:18;;;;;;;;;;;;;;;22.22;64.56;97372.20;599271;237;67150;-66
2023/09/09 00:23:47;;;;;;;;;;;;;;;22.22;64.57;97366.05;592941;237;68140;-66
2023/09/09 00:26:14;;;;;;;;;;;;;;;22.24;64.35;97366.59;599232;237;62679;-66
2023/09/09 00:28:43;;;;;;;;;;;;;;;22.23;64.49;97363.09;599300;237;68023;-66
2023/09/09 00:31:11;;;;;;;;;;;;;;;22.24;64.66;97367.39;599280;237;64521;-66
2023/09/09 00:33:38;;;;;;;;;;;;;;;22.23;64.83;97360.41;599223;237;65075;-66
2023/09/09 00:36:08;;;;;;;;;;;;;;;22.25;64.82;97370.86;599204;237;64943;-66
2023/09/09 00:38:38;;;;;;;;;;;;;;;22.24;64.89;97370.06;599283;237;45180;-67
2023/09/09 00:41:10;;;;;;;;;;;;;;;22.24;64.83;97367.39;599236;237;63033;-68
2023/09/09 00:46:52;;;;;;;;;;;;;;;22.25;64.80;97374.34;597491;237;48894;-66
2023/09/09 00:49:20;;;;;;;;;;;;;;;22.25;65.13;97370.86;599223;237;62698;-67
2023/09/09 00:51:48;;;;;;;;;;;;;;;22.23;64.63;97376.47;599223;237;67237;-67
2023/09/09 00:54:15;;;;;;;;;;;;;;;22.23;64.79;97367.64;599272;237;64648;-67
2023/09/09 00:56:43;;;;;;;;;;;;;;;22.23;64.73;97376.47;599232;237;65227;-67
2023/09/09 00:59:12;;;;;;;;;;;;;;;22.22;64.39;97374.88;599240;237;67405;-67
2023/09/09 01:01:39;;;;;;;;;;;;;;;22.23;64.33;97373.80;599261;237;67502;-67
2023/09/09 01:04:07;;;;;;;;;;;;;;;22.24;64.21;97379.98;599165;237;64887;-67
2023/09/09 01:06:35;;;;;;;;;;;;;;;22.24;64.12;97377.30;599240;237;64618;-67
2023/09/09 01:09:06;;;;;;;;;;;;;;;22.23;63.84;97381.83;599261;237;65880;-67
2023/09/09 01:11:34;;;;;;;;;;;;;;;22.24;63.78;97378.09;599256;237;62802;-67
2023/09/09 01:14:02;;;;;;;;;;;;;;;22.24;63.72;97378.09;599251;237;67055;-62
2023/09/09 01:16:30;;;;;;;;;;;;;;;22.24;63.72;97380.77;590978;239;69454;-62
2023/09/09 01:18:58;;;;;;;;;;;;;;;22.24;63.68;97386.13;593761;239;64990;-62
2023/09/09 01:21:27;;;;;;;;;;;;;;;22.24;63.66;97383.45;593711;239;64473;-62
2023/09/09 01:23:55;;;;;;;;;;;;;;;22.24;63.64;97386.13;593747;239;64935;-62
2023/09/09 01:26:22;;;;;;;;;;;;;;;22.25;63.61;97389.60;593698;239;65209;-61
2023/09/09 01:28:51;;;;;;;;;;;;;;;22.23;63.56;97384.50;593727;239;67486;-62
2023/09/09 01:31:18;;;;;;;;;;;;;;;22.24;63.52;97382.66;593721;239;67354;-62
2023/09/09 01:33:46;;;;;;;;;;;;;;;22.24;63.51;97390.69;593725;239;64915;-62
2023/09/09 01:36:14;;;;;;;;;;;;;;;22.25;63.50;97384.25;593763;239;67389;-62
2023/09/09 01:38:41;;;;;;;;;;;;;;;22.24;63.51;97388.80;593712;239;65179;-66
2023/09/09 01:41:10;;;;;;;;;;;;;;;22.24;63.47;97383.45;593722;239;65037;-67
2023/09/09 01:43:38;;;;;;;;;;;;;;;22.23;63.45;97384.50;593744;239;64618;-67
2023/09/09 01:46:05;;;;;;;;;;;;;;;22.24;63.42;97386.13;593730;239;65025;-67
2023/09/09 01:48:33;;;;;;;;;;;;;;;22.24;63.42;97388.80;593767;239;65353;-66
2023/09/09 01:51:00;;;;;;;;;;;;;;;22.24;63.39;97379.98;593669;239;67313;-67
2023/09/09 01:53:28;;;;;;;;;;;;;;;22.24;63.38;97380.77;593704;239;64891;-67
2023/09/09 01:55:58;;;;;;;;;;;;;;;22.25;63.36;97392.28;593730;239;65225;-67
2023/09/09 01:58:26;;;;;;;;;;;;;;;22.24;63.35;97396.84;593733;239;67493;-67
2023/09/09 02:00:54;;;;;;;;;;;;;;;22.24;63.33;97388.80;593705;239;67460;-66
2023/09/09 02:03:22;;;;;;;;;;;;;;;22.24;63.29;97391.48;593740;239;62504;-66
2023/09/09 02:05:50;;;;;;;;;;;;;;;22.24;63.25;97388.01;593694;239;67382;-67
2023/09/09 02:08:17;;;;;;;;;;;;;;;22.23;63.22;97397.89;593757;239;66834;-62
2023/09/09 02:10:46;;;;;;;;;;;;;;;22.24;63.25;97396.04;593702;239;63534;-62
2023/09/09 02:13:14;;;;;;;;;;;;;;;22.23;63.21;97400.56;593709;239;65090;-62
2023/09/09 02:15:41;;;;;;;;;;;;;;;22.24;63.13;97393.36;594569;237;67435;-62
2023/09/09 02:18:09;;;;;;;;;;;;;;;22.23;63.13;97397.09;599235;237;65211;-62
2023/09/09 02:20:36;;;;;;;;;;;;;;;22.22;63.13;97396.30;599255;237;64873;-62
2023/09/09 02:23:04;;;;;;;;;;;;;;;22.23;63.10;97400.56;599260;237;64980;-62
2023/09/09 02:25:31;;;;;;;;;;;;;;;22.23;63.10;97399.77;599237;237;63713;-62
2023/09/09 02:27:59;;;;;;;;;;;;;;;22.23;63.01;97394.41;599287;237;65750;-62
2023/09/09 02:30:26;;;;;;;;;;;;;;;22.22;63.30;97398.17;599239;237;64883;-62
2023/09/09 02:32:54;;;;;;;;;;;;;;;22.22;63.24;97392.83;599253;237;65056;-62
2023/09/09 02:35:22;;;;;;;;;;;;;;;22.22;63.37;97396.30;599252;237;64500;-62
2023/09/09 02:37:49;;;;;;;;;;;;;;;22.22;63.09;97385.59;599264;237;64776;-62
2023/09/09 02:40:17;;;;;;;;;;;;;;;22.22;63.20;97387.47;599279;237;65155;-62
2023/09/09 02:42:44;;;;;;;;;;;;;;;22.22;63.07;97387.47;599249;237;65449;-62
2023/09/09 02:45:12;;;;;;;;;;;;;;;22.22;63.10;97382.12;599205;237;67827;-62
2023/09/09 02:47:39;;;;;;;;;;;;;;;22.21;62.91;97381.31;599268;237;64883;-62
2023/09/09 02:50:07;;;;;;;;;;;;;;;22.21;62.91;97392.02;599247;237;67602;-62
2023/09/09 02:52:35;;;;;;;;;;;;;;;22.21;62.82;97377.81;599237;237;66961;-62
2023/09/09 02:55:03;;;;;;;;;;;;;;;22.21;63.23;97381.31;599286;237;62790;-62
2023/09/09 02:57:30;;;;;;;;;;;;;;;22.21;63.04;97375.97;599266;237;64793;-62
2023/09/09 02:59:58;;;;;;;;;;;;;;;22.21;62.95;97375.97;599221;237;67100;-62
2023/09/09 03:02:25;;;;;;;;;;;;;;;22.20;63.05;97371.66;599263;237;64936;-62
2023/09/09 03:04:53;;;;;;;;;;;;;;;22.22;62.98;97374.09;599228;237;67280;-62
2023/09/09 03:07:20;;;;;;;;;;;;;;;22.21;63.03;97381.31;599283;237;67565;-62
2023/09/09 03:09:48;;;;;;;;;;;;;;;22.20;63.19;97371.66;599250;237;62667;-62
2023/09/09 03:12:20;;;;;;;;;;;;;;;22.20;63.08;97377.02;599217;237;67466;-62
2023/09/09 03:14:48;;;;;;;;;;;;;;;22.20;63.08;97368.19;599246;237;65279;-62
2023/09/09 03:17:17;;;;;;;;;;;;;;;22.20;63.03;97368.98;599228;237;65101;-62
2023/09/09 03:19:45;;;;;;;;;;;;;;;22.20;62.94;97373.55;599290;237;65099;-62
2023/09/09 03:22:12;;;;;;;;;;;;;;;22.19;62.87;97378.10;599259;237;65725;-62
2023/09/09 03:24:40;;;;;;;;;;;;;;;22.19;62.90;97372.75;599231;237;65069;-62
2023/09/09 03:27:07;;;;;;;;;;;;;;;22.20;63.21;97374.34;599260;237;67263;-67
2023/09/09 03:29:35;;;;;;;;;;;;;;;22.19;63.44;97383.45;599233;237;67196;-67
2023/09/09 03:32:02;;;;;;;;;;;;;;;22.20;63.05;97376.22;599276;237;64815;-67
2023/09/09 03:34:30;;;;;;;;;;;;;;;22.19;62.99;97382.66;599260;237;64797;-67
2023/09/09 03:36:58;;;;;;;;;;;;;;;22.19;63.16;97383.45;599264;237;67365;-62
2023/09/09 03:39:25;;;;;;;;;;;;;;;22.20;63.15;97389.61;599203;237;63032;-62
2023/09/09 03:41:53;;;;;;;;;;;;;;;22.19;63.34;97391.48;599249;237;67237;-62
2023/09/09 03:44:20;;;;;;;;;;;;;;;22.19;62.86;97390.69;599299;237;65831;-62
2023/09/09 03:46:48;;;;;;;;;;;;;;;22.18;63.64;97392.57;599306;237;63061;-62
2023/09/09 03:49:16;;;;;;;;;;;;;;;22.19;63.40;97396.04;599247;237;66862;-62
2023/09/09 03:51:44;;;;;;;;;;;;;;;22.18;63.54;97397.92;599209;237;67047;-62
2023/09/09 03:54:12;;;;;;;;;;;;;;;22.18;63.96;97395.25;599193;237;65073;-62
2023/09/09 03:56:39;;;;;;;;;;;;;;;22.19;64.25;97396.04;599253;237;67566;-62
2023/09/09 03:59:07;;;;;;;;;;;;;;;22.17;64.44;97390.91;599285;237;65836;-62
2023/09/09 04:01:36;;;;;;;;;;;;;;;22.17;64.43;97390.91;599245;237;63723;-62
2023/09/09 04:04:04;;;;;;;;;;;;;;;22.17;64.60;97396.27;599236;237;67246;-62
2023/09/09 04:06:32;;;;;;;;;;;;;;;22.16;64.81;97389.32;599208;237;67098;-62
2023/09/09 04:08:59;;;;;;;;;;;;;;;22.16;64.96;97390.11;599256;237;63750;-62
2023/09/09 04:11:27;;;;;;;;;;;;;;;22.15;63.61;97401.08;599315;237;66864;-62
2023/09/09 04:13:55;;;;;;;;;;;;;;;22.15;63.85;97393.87;599251;237;66740;-62
2023/09/09 04:16:22;;;;;;;;;;;;;;;22.16;64.52;97392.80;597495;237;62847;-62
2023/09/09 04:18:50;;;;;;;;;;;;;;;22.16;63.89;97400.03;595320;238;67983;-62
2023/09/09 04:21:19;;;;;;;;;;;;;;;22.16;64.22;97400.03;595404;238;67645;-62
2023/09/09 04:23:47;;;;;;;;;;;;;;;22.16;64.48;97400.03;595435;238;65215;-62
2023/09/09 04:26:15;;;;;;;;;;;;;;;22.15;64.23;97396.55;595402;238;66905;-62
2023/09/09 04:28:42;;;;;;;;;;;;;;;22.16;64.19;97406.17;595366;238;66780;-62
2023/09/09 04:31:10;;;;;;;;;;;;;;;22.15;64.43;97399.23;595382;238;63690;-62
2023/09/09 04:33:39;;;;;;;;;;;;;;;22.15;64.45;97393.87;595327;238;45153;-62
2023/09/09 04:36:07;;;;;;;;;;;;;;;22.15;64.04;97398.41;595428;238;67250;-62
2023/09/09 04:38:35;;;;;;;;;;;;;;;22.14;63.66;97394.93;595418;238;63186;-62
2023/09/09 04:41:02;;;;;;;;;;;;;;;22.14;63.82;97402.95;595374;238;65114;-62
2023/09/09 04:43:30;;;;;;;;;;;;;;;22.15;63.89;97395.73;595354;238;67397;-62
2023/09/09 04:45:58;;;;;;;;;;;;;;;22.15;64.12;97403.76;595733;235;65921;-62
2023/09/09 04:48:25;;;;;;;;;;;;;;;22.14;64.06;97397.61;601739;235;67910;-62
2023/09/09 04:50:53;;;;;;;;;;;;;;;22.14;63.78;97397.61;598166;235;67764;-63
2023/09/09 04:53:21;;;;;;;;;;;;;;;22.15;63.21;97401.08;600263;235;65104;-62
2023/09/09 04:55:50;;;;;;;;;;;;;;;22.14;65.48;97394.93;600886;235;65194;-62
2023/09/09 04:58:19;;;;;;;;;;;;;;;22.13;65.77;97405.92;594823;235;67863;-63
2023/09/09 05:00:47;;;;;;;;;;;;;;;22.12;65.10;97410.45;601302;235;65099;-63
2023/09/09 05:03:14;;;;;;;;;;;;;;;22.12;65.38;97409.66;601861;235;64695;-62
2023/09/09 05:05:42;;;;;;;;;;;;;;;22.11;65.23;97405.38;601970;235;67130;-62
2023/09/09 05:08:09;;;;;;;;;;;;;;;22.10;64.94;97403.78;601981;235;64991;-63
2023/09/09 05:10:37;;;;;;;;;;;;;;;22.09;65.25;97402.95;601974;235;65254;-63
2023/09/09 05:13:05;;;;;;;;;;;;;;;22.09;65.13;97399.48;601953;235;66978;-62
2023/09/09 05:15:33;;;;;;;;;;;;;;;22.09;65.02;97400.28;601997;235;63021;-63
2023/09/09 05:18:00;;;;;;;;;;;;;;;22.08;64.15;97398.69;601995;235;67300;-63
2023/09/09 05:20:28;;;;;;;;;;;;;;;22.09;63.92;97399.48;601975;235;64723;-62
2023/09/09 05:22:56;;;;;;;;;;;;;;;22.09;64.70;97404.84;601972;235;63823;-62
2023/09/09 05:25:24;;;;;;;;;;;;;;;22.07;64.83;97393.59;601994;235;67834;-62
2023/09/09 05:27:51;;;;;;;;;;;;;;;22.07;64.48;97407.80;601994;235;67263;-62
2023/09/09 05:30:19;;;;;;;;;;;;;;;22.07;63.85;97397.09;601989;235;65022;-63
2023/09/09 05:32:47;;;;;;;;;;;;;;;22.07;63.78;97398.94;601960;235;66446;-62
2023/09/09 05:35:14;;;;;;;;;;;;;;;22.07;63.70;97401.62;601951;235;67304;-63
2023/09/09 05:37:42;;;;;;;;;;;;;;;22.07;63.69;97393.59;595161;235;66714;-63
2023/09/09 05:40:10;;;;;;;;;;;;;;;22.07;62.96;97399.77;601893;235;64591;-63
2023/09/09 05:42:39;;;;;;;;;;;;;;;22.06;63.22;97395.47;602041;235;67125;-62
2023/09/09 05:45:12;;;;;;;;;;;;;;;22.06;63.27;97395.47;601972;235;62929;-63
2023/09/09 05:47:37;;;;;;;;;;;;;;;22.06;63.72;97402.70;601845;235;67213;-63
2023/09/09 05:50:05;;;;;;;;;;;;;;;22.06;63.06;97395.47;602001;235;64297;-62
2023/09/09 05:52:33;;;;;;;;;;;;;;;22.06;63.25;97400.82;601973;235;62568;-62
2023/09/09 05:55:01;;;;;;;;;;;;;;;22.06;63.15;97400.02;602033;235;64533;-62
2023/09/09 05:57:29;;;;;;;;;;;;;;;22.06;63.58;97389.32;601980;235;67481;-62
2023/09/09 05:59:57;;;;;;;;;;;;;;;22.05;63.28;97393.87;601973;235;62593;-63
2023/09/09 06:02:25;;;;;;;;;;;;;;;22.06;63.05;97394.67;601983;235;65198;-62
2023/09/09 06:04:53;;;;;;;;;;;;;;;22.04;62.69;97397.60;601997;235;66848;-62
2023/09/09 06:07:21;;;;;;;;;;;;;;;22.04;62.46;97394.92;601982;235;65228;-67
2023/09/09 06:09:48;;;;;;;;;;;;;;;22.05;63.03;97401.91;601968;235;67113;-67
2023/09/09 06:12:16;;;;;;;;;;;;;;;22.06;62.78;97402.70;602003;235;67069;-67
2023/09/09 06:14:43;;;;;;;;;;;;;;;22.05;62.53;97401.11;601957;235;62888;-67
2023/09/09 06:17:11;;;;;;;;;;;;;;;22.05;62.71;97403.78;605042;234;64372;-67
2023/09/09 06:19:40;;;;;;;;;;;;;;;22.04;63.62;97402.95;605957;234;67059;-67
2023/09/09 06:22:08;;;;;;;;;;;;;;;22.02;60.18;97405.12;605890;234;65056;-67
2023/09/09 06:24:35;;;;;;;;;;;;;;;22.03;60.67;97401.36;605911;234;68105;-67
2023/09/09 06:27:03;;;;;;;;;;;;;;;22.04;60.67;97402.95;605933;234;64742;-67
2023/09/09 06:29:31;;;;;;;;;;;;;;;22.06;60.65;97410.73;605887;234;65067;-67
2023/09/09 06:31:59;;;;;;;;;;;;;;;22.07;60.79;97412.33;605921;234;65691;-67
2023/09/09 06:34:27;;;;;;;;;;;;;;;22.07;61.30;97412.33;605924;234;67751;-67
2023/09/09 06:36:55;;;;;;;;;;;;;;;22.07;61.88;97407.80;605945;234;63897;-67
2023/09/09 06:39:22;;;;;;;;;;;;;;;22.08;61.69;97420.09;605930;234;67059;-63
2023/09/09 06:41:50;;;;;;;;;;;;;;;22.08;62.36;97413.95;605946;234;67113;-63
2023/09/09 06:44:18;;;;;;;;;;;;;;;22.08;62.85;97413.95;605901;234;63051;-63
2023/09/09 06:46:45;;;;;;;;;;;;;;;22.08;63.27;97413.95;605921;234;65030;-63
2023/09/09 06:49:13;;;;;;;;;;;;;;;22.08;64.82;97414.75;605919;234;64705;-63
2023/09/09 06:51:40;;;;;;;;;;;;;;;22.07;65.31;97418.50;605917;234;62929;-63
2023/09/09 06:54:08;;;;;;;;;;;;;;;22.07;65.50;97417.68;605898;234;67107;-63
2023/09/09 06:56:35;;;;;;;;;;;;;;;22.08;65.47;97420.09;605890;234;64923;-63
2023/09/09 06:59:03;;;;;;;;;;;;;;;22.08;65.51;97421.98;605951;234;63683;-63
2023/09/09 07:01:31;;;;;;;;;;;;;;;22.08;65.48;97417.42;605884;234;64908;-63
2023/09/09 07:03:58;;;;;;;;;;;;;;;22.08;65.50;97413.95;605868;234;64805;-63
2023/09/09 07:06:26;;;;;;;;;;;;;;;22.08;65.37;97420.09;605925;234;64889;-63
2023/09/09 07:08:53;;;;;;;;;;;;;;;22.09;65.72;97412.87;605959;234;67047;-63
2023/09/09 07:11:21;;;;;;;;;;;;;;;22.09;65.45;97415.55;605928;234;67215;-63
2023/09/09 07:13:48;;;;;;;;;;;;;;;22.08;65.33;97413.95;605893;234;64735;-62
2023/09/09 07:16:16;;;;;;;;;;;;;;;22.09;65.76;97402.16;605848;234;67190;-62
2023/09/09 07:18:44;;;;;;;;;;;;;;;22.08;65.75;97409.39;605904;234;67098;-62
2023/09/09 07:21:11;;;;;;;;;;;;;;;22.09;65.75;97404.84;605978;234;64925;-63
2023/09/09 07:23:38;;;;;;;;;;;;;;;22.09;65.68;97405.63;605965;234;64960;-63
2023/09/09 07:26:06;;;;;;;;;;;;;;;22.10;66.05;97403.78;605901;234;64884;-63
2023/09/09 07:28:33;;;;;;;;;;;;;;;22.09;65.77;97407.52;605859;234;62924;-63
2023/09/09 07:31:02;;;;;;;;;;;;;;;22.10;65.66;97398.43;605798;234;66744;-63
2023/09/09 07:33:30;;;;;;;;;;;;;;;22.10;65.66;97406.46;605814;234;66924;-63
2023/09/09 07:35:57;;;;;;;;;;;;;;;22.10;65.79;97404.58;605944;234;65148;-62
2023/09/09 07:38:25;;;;;;;;;;;;;;;22.10;65.76;97403.78;605920;234;67333;-63
2023/09/09 07:40:59;;;;;;;;;;;;;;;22.10;65.90;97404.58;605879;234;67025;-63
2023/09/09 07:43:26;;;;;;;;;;;;;;;22.10;65.97;97401.91;605908;234;62700;-63
2023/09/09 07:45:55;;;;;;;;;;;;;;;22.11;65.62;97405.38;605911;234;67090;-63
2023/09/09 07:48:22;;;;;;;;;;;;;;;22.11;65.99;97408.05;605949;234;66827;-63
2023/09/09 07:50:54;;;;;;;;;;;;;;;22.11;66.23;97402.70;605931;234;62849;-63
2023/09/09 07:53:23;;;;;;;;;;;;;;;22.11;66.23;97405.38;605913;234;67428;-67
2023/09/09 07:55:51;;;;;;;;;;;;;;;22.11;66.32;97408.05;605887;234;66950;-67
2023/09/09 07:58:19;;;;;;;;;;;;;;;22.11;66.52;97402.70;605916;234;62785;-67
2023/09/09 08:00:46;;;;;;;;;;;;;;;22.11;66.17;97400.82;605871;234;64783;-68
2023/09/09 08:03:14;;;;;;;;;;;;;;;22.10;66.36;97404.58;605947;234;67818;-67
2023/09/09 08:05:41;;;;;;;;;;;;;;;22.11;66.34;97402.70;605912;234;65158;-67
2023/09/09 08:08:10;;;;;;;;;;;;;;;22.11;66.13;97398.14;605881;234;67112;-67
2023/09/09 08:10:37;;;;;;;;;;;;;;;22.12;65.99;97407.77;605938;234;64808;-67
2023/09/09 08:13:05;;;;;;;;;;;;;;;22.11;66.40;97400.82;605935;234;65561;-67
2023/09/09 08:15:32;;;;;;;;;;;;;;;22.12;66.38;97401.63;605887;234;67071;-67
2023/09/09 08:18:00;;;;;;;;;;;;;;;22.12;66.22;97396.27;605935;234;64254;-67
2023/09/09 08:20:27;;;;;;;;;;;;;;;22.12;66.33;97399.74;605901;234;62742;-63
2023/09/09 08:22:55;;;;;;;;;;;;;;;22.13;66.17;97392.53;605936;234;64408;-62
2023/09/09 08:25:23;;;;;;;;;;;;;;;22.13;66.06;97404.04;605884;234;67805;-62
2023/09/09 08:27:50;;;;;;;;;;;;;;;22.13;66.27;97400.56;605989;234;64896;-62
2023/09/09 08:30:18;;;;;;;;;;;;;;;22.13;66.37;97392.53;605908;234;66982;-63
2023/09/09 08:32:46;;;;;;;;;;;;;;;22.12;66.55;97394.39;605910;234;66619;-62
2023/09/09 08:35:13;;;;;;;;;;;;;;;22.13;66.52;97396.02;605897;234;62819;-63
2023/09/09 08:37:41;;;;;;;;;;;;;;;22.14;66.65;97397.61;605923;234;64620;-62
2023/09/09 08:40:09;;;;;;;;;;;;;;;22.13;66.78;97396.02;605945;234;67122;-62
2023/09/09 08:42:38;;;;;;;;;;;;;;;22.13;66.69;97398.69;605932;234;65060;-63
2023/09/09 08:45:09;;;;;;;;;;;;;;;22.12;66.35;97390.91;605898;234;66785;-62
2023/09/09 08:47:37;;;;;;;;;;;;;;;22.13;66.53;97389.86;605892;234;67115;-63
2023/09/09 08:50:05;;;;;;;;;;;;;;;22.13;66.41;97390.66;605888;234;65117;-62
2023/09/09 08:52:32;;;;;;;;;;;;;;;22.14;66.56;97386.10;605950;234;67512;-62
2023/09/09 08:55:00;;;;;;;;;;;;;;;22.13;66.57;97385.30;605968;234;66921;-62
2023/09/09 08:57:29;;;;;;;;;;;;;;;22.14;66.50;97386.10;605913;234;62676;-63
2023/09/09 08:59:57;;;;;;;;;;;;;;;22.14;66.50;97386.10;605896;234;67148;-63
2023/09/09 09:02:25;;;;;;;;;;;;;;;22.14;66.52;97394.13;605908;234;66806;-63
2023/09/09 09:04:53;;;;;;;;;;;;;;;22.13;66.45;97393.34;605908;234;64923;-63
2023/09/09 09:07:21;;;;;;;;;;;;;;;22.14;66.50;97394.13;606002;234;65160;-63
2023/09/09 09:09:49;;;;;;;;;;;;;;;22.14;66.56;97396.80;605908;234;66876;-62
2023/09/09 09:12:16;;;;;;;;;;;;;;;22.14;66.61;97396.80;605911;234;65200;-63
2023/09/09 09:14:47;;;;;;;;;;;;;;;22.14;66.53;97391.45;605833;234;64788;-63
2023/09/09 09:17:17;;;;;;;;;;;;;;;22.14;66.58;97402.16;605887;234;64917;-63
2023/09/09 09:19:45;;;;;;;;;;;;;;;22.14;66.53;97399.48;605942;234;65835;-64
2023/09/09 09:22:13;;;;;;;;;;;;;;;22.15;66.46;97393.05;605916;234;67276;-63
2023/09/09 09:24:42;;;;;;;;;;;;;;;22.14;66.58;97386.10;605921;234;64541;-63
2023/09/09 09:27:14;;;;;;;;;;;;;;;22.15;66.88;97383.17;605891;234;65082;-64
2023/09/09 09:29:42;;;;;;;;;;;;;;;22.13;67.03;97379.95;605180;234;64873;-64
2023/09/09 09:32:10;;;;;;;;;;;;;;;22.14;66.65;97370.84;603182;234;64106;-64
2023/09/09 09:34:38;;;;;;;;;;;;;;;22.13;66.69;97374.59;605217;234;65075;-63
2023/09/09 09:37:10;;;;;;;;;;;;;;;22.14;66.31;97364.69;605534;234;66722;-64
2023/09/09 09:39:38;;;;;;;;;;;;;;;22.13;66.32;97366.56;604989;234;65917;-63
2023/09/09 09:42:06;;;;;;;;;;;;;;;22.13;66.09;97363.89;605422;234;66295;-63
2023/09/09 09:44:34;;;;;;;;;;;;;;;22.13;65.30;97368.45;605569;234;66893;-63
2023/09/09 09:47:03;;;;;;;;;;;;;;;22.15;65.90;97359.08;605518;234;67581;-64
2023/09/09 09:49:34;;;;;;;;;;;;;;;22.14;66.17;97360.12;605502;234;65459;-63
2023/09/09 09:52:02;;;;;;;;;;;;;;;22.14;66.53;97349.42;605558;234;66575;-64
2023/09/09 09:54:35;;;;;;;;;;;;;;;22.14;66.30;97352.10;605939;234;66951;-63
2023/09/09 09:57:01;;;;;;;;;;;;;;;22.14;66.57;97346.75;605646;234;64911;-64
2023/09/09 09:59:31;;;;;;;;;;;;;;;22.14;65.66;97353.98;606025;234;66558;-63
2023/09/09 10:02:00;;;;;;;;;;;;;;;22.14;65.57;97344.07;605822;234;64751;-64
2023/09/09 10:04:28;;;;;;;;;;;;;;;22.14;65.94;97352.10;605943;234;64920;-63
2023/09/09 10:06:57;;;;;;;;;;;;;;;22.15;66.03;97350.22;605942;234;67098;-63
2023/09/09 10:09:26;;;;;;;;;;;;;;;22.15;66.15;97352.90;605988;234;64515;-63
2023/09/09 10:12:05;;;;;;;;;;;;;;;22.14;66.16;97344.07;605662;234;63839;-63
2023/09/09 10:14:34;;;;;;;;;;;;;;;22.15;66.16;97347.55;605996;234;66780;-64
2023/09/09 10:17:03;;;;;;;;;;;;;;;22.14;66.20;97349.42;605909;234;64422;-63
2023/09/09 10:19:31;;;;;;;;;;;;;;;22.14;66.27;97337.92;605933;234;63437;-63
2023/09/09 10:21:58;;;;;;;;;;;;;;;22.14;66.15;97343.27;605971;234;64746;-63
2023/09/09 10:24:27;;;;;;;;;;;;;;;22.14;66.19;97336.04;605947;234;64636;-64
2023/09/09 10:26:55;;;;;;;;;;;;;;;22.14;66.10;97335.24;601973;234;62996;-64
2023/09/09 10:29:23;;;;;;;;;;;;;;;22.14;66.01;97332.56;604192;234;67756;-63
2023/09/09 10:31:50;;;;;;;;;;;;;;;22.14;65.90;97337.92;605927;234;66896;-62
2023/09/09 10:34:19;;;;;;;;;;;;;;;22.14;65.78;97328.02;605893;234;65111;-62
2023/09/09 10:36:47;;;;;;;;;;;;;;;22.14;65.66;97333.36;605898;234;66741;-62
2023/09/09 10:39:16;;;;;;;;;;;;;;;22.14;65.71;97335.24;605953;234;64687;-61
2023/09/09 10:41:44;;;;;;;;;;;;;;;22.15;65.53;97331.48;605967;234;64945;-62
2023/09/09 10:44:11;;;;;;;;;;;;;;;22.14;65.76;97330.69;605894;234;64694;-62
2023/09/09 10:46:39;;;;;;;;;;;;;;;22.14;65.66;97332.56;605960;234;66336;-62
2023/09/09 10:49:07;;;;;;;;;;;;;;;22.14;65.28;97327.21;605919;234;62770;-62
2023/09/09 10:51:49;;;;;;;;;;;;;;;22.16;65.60;97333.11;605856;234;64270;-61
2023/09/09 10:54:19;;;;;;;;;;;;;;;22.15;65.47;97331.48;605944;234;67155;-63
2023/09/09 10:56:47;;;;;;;;;;;;;;;22.14;65.28;97325.33;605730;234;62712;-63
2023/09/09 10:59:22;;;;;;;;;;;;;;;22.14;65.43;97321.86;605947;234;64699;-63
2023/09/09 11:01:51;;;;;;;;;;;;;;;22.14;65.40;97322.66;605969;234;66727;-62
2023/09/09 11:04:22;;;;;;;;;;;;;;;22.15;65.43;97312.75;605090;234;65981;-61
2023/09/09 11:07:08;;;;;;;;;;;;;;;22.14;65.54;97303.92;605965;234;66959;-62
2023/09/09 11:09:37;;;;;;;;;;;;;;;22.14;65.67;97300.45;605972;234;66940;-63
2023/09/09 11:12:09;;;;;;;;;;;;;;;22.14;65.80;97300.45;605984;234;65078;-63
2023/09/09 11:14:37;;;;;;;;;;;;;;;22.13;65.13;97299.65;605880;234;65198;-64
2023/09/09 11:17:05;;;;;;;;;;;;;;;22.14;65.59;97300.45;605921;234;66677;-64
2023/09/09 11:19:33;;;;;;;;;;;;;;;22.13;65.37;97299.65;605899;234;63131;-64
2023/09/09 11:22:02;;;;;;;;;;;;;;;22.15;65.94;97296.69;605938;234;67266;-64
2023/09/09 11:24:29;;;;;;;;;;;;;;;22.12;62.97;97292.67;605975;234;67203;-63
2023/09/09 11:26:58;;;;;;;;;;;;;;;22.14;62.58;97287.06;605947;234;65950;-62
2023/09/09 11:29:25;;;;;;;;;;;;;;;22.15;62.20;97291.33;605915;234;66963;-61
2023/09/09 11:31:53;;;;;;;;;;;;;;;22.16;65.29;97290.28;605957;234;66640;-62
2023/09/09 11:34:32;;;;;;;;;;;;;;;22.16;66.40;97284.92;605924;234;65086;-62
2023/09/09 11:37:00;;;;;;;;;;;;;;;22.14;66.54;97285.19;606001;234;67025;-63
2023/09/09 11:39:28;;;;;;;;;;;;;;;22.14;66.31;97279.83;605946;234;66699;-63
2023/09/09 11:41:55;;;;;;;;;;;;;;;22.14;63.38;97281.70;605935;234;64924;-63
2023/09/09 11:44:23;;;;;;;;;;;;;;;22.14;63.62;97277.16;605936;234;66797;-63
2023/09/09 11:46:51;;;;;;;;;;;;;;;22.15;64.44;97273.42;605930;234;65566;-63
2023/09/09 11:49:18;;;;;;;;;;;;;;;22.14;64.76;97277.16;605995;234;63779;-63
2023/09/09 11:51:46;;;;;;;;;;;;;;;22.15;64.97;97264.56;605960;234;67051;-63
2023/09/09 11:54:15;;;;;;;;;;;;;;;22.15;65.06;97264.56;605955;234;66836;-63
2023/09/09 11:56:43;;;;;;;;;;;;;;;22.14;64.90;97276.36;605600;234;65110;-63
2023/09/09 11:59:11;;;;;;;;;;;;;;;22.13;65.03;97272.88;605921;234;64282;-63
2023/09/09 12:01:42;;;;;;;;;;;;;;;22.14;65.07;97262.97;605943;234;66667;-63
2023/09/09 12:04:10;;;;;;;;;;;;;;;22.14;65.00;97271.00;605974;234;65079;-62
2023/09/09 12:06:42;;;;;;;;;;;;;;;22.15;64.88;97261.89;605934;234;66775;-62
2023/09/09 12:09:10;;;;;;;;;;;;;;;22.13;64.84;97256.83;605925;234;66910;-63
2023/09/09 12:11:39;;;;;;;;;;;;;;;22.14;64.94;97257.62;605926;234;65201;-63
2023/09/09 12:14:07;;;;;;;;;;;;;;;22.13;64.75;97256.83;605922;234;66884;-63
2023/09/09 12:16:35;;;;;;;;;;;;;;;22.13;64.58;97251.47;603893;234;66684;-63
2023/09/09 12:19:02;;;;;;;;;;;;;;;22.13;64.49;97246.12;601976;235;65076;-63
2023/09/09 12:21:31;;;;;;;;;;;;;;;22.14;63.24;97252.27;601982;235;66926;-63
2023/09/09 12:24:00;;;;;;;;;;;;;;;22.14;63.92;97258.42;602018;235;66430;-63
2023/09/09 12:26:28;;;;;;;;;;;;;;;22.14;64.16;97257.62;602001;235;62962;-63
2023/09/09 12:29:05;;;;;;;;;;;;;;;22.14;63.96;97247.70;602057;235;66514;-63
2023/09/09 12:31:33;;;;;;;;;;;;;;;22.15;63.92;97257.36;602070;235;64293;-62
2023/09/09 12:34:01;;;;;;;;;;;;;;;22.15;64.27;97248.50;601983;235;65146;-62
2023/09/09 12:36:30;;;;;;;;;;;;;;;22.14;64.08;97246.91;601998;235;67171;-62
2023/09/09 12:38:57;;;;;;;;;;;;;;;22.14;64.31;97247.70;601881;235;66409;-63
2023/09/09 12:41:25;;;;;;;;;;;;;;;22.14;63.55;97244.23;602010;235;65220;-63
2023/09/09 12:43:52;;;;;;;;;;;;;;;22.14;63.87;97241.56;602049;235;66648;-63
2023/09/09 12:46:21;;;;;;;;;;;;;;;22.14;63.58;97238.88;602016;235;66412;-63
2023/09/09 12:48:52;;;;;;;;;;;;;;;22.15;64.28;97237.80;601856;235;62797;-63
2023/09/09 12:51:21;;;;;;;;;;;;;;;22.14;63.99;97231.65;601994;235;64295;-63
2023/09/09 12:53:48;;;;;;;;;;;;;;;22.15;63.85;97232.45;601983;235;64826;-63
2023/09/09 12:56:16;;;;;;;;;;;;;;;22.15;63.75;97235.13;602025;235;65208;-63